createdAt,value
2022-08-26T00:02:15.437Z,100.00
2022-08-26T00:04:45.726Z,100.00
2022-08-26T00:07:12.170Z,100.00
2022-08-26T00:09:40.197Z,100.00
2022-08-26T00:12:07.724Z,100.00
2022-08-26T00:14:36.456Z,100.00
2022-08-26T00:17:02.947Z,100.00
2022-08-26T00:19:31.432Z,100.00
2022-08-26T00:21:57.923Z,100.00
2022-08-26T00:24:24.659Z,100.00
2022-08-26T00:26:52.245Z,100.00
2022-08-26T00:29:19.263Z,100.00
2022-08-26T00:31:47.968Z,100.00
2022-08-26T00:34:16.811Z,100.00
2022-08-26T00:36:47.380Z,100.00
2022-08-26T00:39:15.682Z,100.00
2022-08-26T00:41:43.116Z,100.00
2022-08-26T00:44:11.169Z,100.00
2022-08-26T00:46:46.547Z,100.00
2022-08-26T00:49:18.400Z,100.00
2022-08-26T00:51:51.201Z,100.00
2022-08-26T00:54:21.272Z,100.00
2022-08-26T00:56:57.911Z,100.00
2022-08-26T00:59:32.812Z,100.00
2022-08-26T01:02:02.713Z,100.00
2022-08-26T01:04:31.238Z,100.00
2022-08-26T01:06:57.716Z,100.00
2022-08-26T01:09:24.422Z,100.00
2022-08-26T01:11:55.333Z,100.00
2022-08-26T01:14:23.009Z,100.00
2022-08-26T01:16:50.991Z,100.00
2022-08-26T01:19:27.860Z,100.00
2022-08-26T01:22:03.604Z,100.00
2022-08-26T01:24:30.760Z,100.00
2022-08-26T01:27:01.634Z,100.00
2022-08-26T01:29:30.617Z,100.00
2022-08-26T01:31:58.132Z,100.00
2022-08-26T01:34:35.024Z,100.00
2022-08-26T01:37:16.068Z,100.00
2022-08-26T01:39:46.686Z,100.00
2022-08-26T01:42:16.172Z,100.00
2022-08-26T01:44:49.170Z,100.00
2022-08-26T01:47:18.168Z,100.00
2022-08-26T01:49:48.002Z,100.00
2022-08-26T01:52:22.931Z,100.00
2022-08-26T01:54:52.897Z,100.00
2022-08-26T01:57:21.685Z,100.00
2022-08-26T01:59:51.840Z,100.00
2022-08-26T02:02:18.748Z,100.00
2022-08-26T02:04:57.817Z,100.00
2022-08-26T02:07:26.682Z,100.00
2022-08-26T02:09:54.414Z,100.00
2022-08-26T02:12:21.715Z,100.00
2022-08-26T02:14:53.724Z,100.00
2022-08-26T02:17:24.006Z,100.00
2022-08-26T02:19:51.740Z,100.00
2022-08-26T02:22:21.308Z,100.00
2022-08-26T02:24:58.081Z,100.00
2022-08-26T02:27:32.299Z,100.00
2022-08-26T02:30:10.760Z,100.00
2022-08-26T02:32:38.177Z,100.00
2022-08-26T02:35:10.691Z,100.00
2022-08-26T02:37:37.734Z,100.00
2022-08-26T02:40:06.975Z,100.00
2022-08-26T02:42:33.923Z,100.00
2022-08-26T02:45:01.229Z,100.00
2022-08-26T02:47:29.021Z,100.00
2022-08-26T02:49:55.832Z,100.00
2022-08-26T02:52:22.231Z,100.00
2022-08-26T02:54:49.456Z,100.00
2022-08-26T02:57:17.211Z,100.00
2022-08-26T02:59:43.724Z,100.00
2022-08-26T03:02:11.279Z,100.00
2022-08-26T03:04:39.061Z,100.00
2022-08-26T03:07:06.087Z,100.00
2022-08-26T03:09:34.387Z,100.00
2022-08-26T03:12:01.139Z,100.00
2022-08-26T03:14:28.885Z,100.00
2022-08-26T03:16:56.360Z,100.00
2022-08-26T03:19:25.735Z,100.00
2022-08-26T03:21:53.689Z,100.00
2022-08-26T03:24:27.103Z,100.00
2022-08-26T03:26:53.494Z,100.00
2022-08-26T03:29:40.428Z,100.00
2022-08-26T03:32:07.721Z,100.00
2022-08-26T03:34:35.019Z,100.00
2022-08-26T03:37:01.909Z,100.00
2022-08-26T03:39:31.451Z,100.00
2022-08-26T03:41:58.856Z,100.00
2022-08-26T03:44:25.318Z,100.00
2022-08-26T03:46:51.724Z,100.00
2022-08-26T03:49:18.188Z,100.00
2022-08-26T03:51:44.918Z,100.00
2022-08-26T03:54:12.047Z,100.00
2022-08-26T03:56:39.121Z,100.00
2022-08-26T03:59:07.594Z,100.00
2022-08-26T04:01:34.485Z,100.00
2022-08-26T04:04:01.435Z,100.00
2022-08-26T04:06:40.105Z,100.00
2022-08-26T04:09:13.768Z,100.00
2022-08-26T04:11:43.525Z,100.00
2022-08-26T04:14:20.206Z,100.00
2022-08-26T04:16:47.999Z,100.00
2022-08-26T04:19:15.977Z,100.00
2022-08-26T04:21:44.074Z,100.00
2022-08-26T04:24:13.354Z,100.00
2022-08-26T04:26:42.716Z,100.00
2022-08-26T04:29:15.872Z,100.00
2022-08-26T04:31:42.494Z,100.00
2022-08-26T04:34:11.001Z,100.00
2022-08-26T04:36:38.048Z,100.00
2022-08-26T04:39:05.348Z,100.00
2022-08-26T04:41:35.434Z,100.00
2022-08-26T04:44:03.874Z,100.00
2022-08-26T04:46:30.415Z,100.00
2022-08-26T04:48:56.885Z,100.00
2022-08-26T04:51:27.961Z,100.00
2022-08-26T04:53:59.597Z,100.00
2022-08-26T04:56:29.119Z,100.00
2022-08-26T04:58:56.775Z,100.00
2022-08-26T05:01:24.207Z,100.00
2022-08-26T05:03:51.781Z,100.00
2022-08-26T05:06:19.929Z,100.00
2022-08-26T05:08:46.951Z,100.00
2022-08-26T05:11:14.009Z,100.00
2022-08-26T05:13:41.962Z,100.00
2022-08-26T05:16:11.585Z,100.00
2022-08-26T05:18:39.739Z,100.00
2022-08-26T05:21:07.111Z,100.00
2022-08-26T05:23:35.735Z,100.00
2022-08-26T05:26:02.431Z,100.00
2022-08-26T05:28:32.192Z,100.00
2022-08-26T05:30:58.677Z,100.00
2022-08-26T05:33:26.919Z,100.00
2022-08-26T05:35:53.483Z,100.00
2022-08-26T05:38:21.739Z,100.00
2022-08-26T05:40:52.909Z,100.00
2022-08-26T05:43:21.328Z,100.00
2022-08-26T05:45:50.075Z,100.00
2022-08-26T05:48:22.664Z,100.00
2022-08-26T05:50:52.799Z,100.00
2022-08-26T05:53:22.523Z,100.00
2022-08-26T05:55:52.727Z,100.00
2022-08-26T05:58:21.403Z,100.00
2022-08-26T06:01:04.504Z,100.00
2022-08-26T06:03:33.835Z,100.00
2022-08-26T06:06:07.894Z,100.00
2022-08-26T06:08:35.437Z,100.00
2022-08-26T06:11:04.834Z,100.00
2022-08-26T06:13:34.347Z,100.00
2022-08-26T06:16:09.536Z,100.00
2022-08-26T06:18:39.448Z,100.00
2022-08-26T06:21:14.595Z,100.00
2022-08-26T06:24:01.208Z,100.00
2022-08-26T06:26:28.199Z,100.00
2022-08-26T06:28:55.559Z,100.00
2022-08-26T06:31:23.290Z,100.00
2022-08-26T06:33:50.673Z,100.00
2022-08-26T06:36:22.626Z,100.00
2022-08-26T06:38:51.801Z,100.00
2022-08-26T06:41:21.150Z,100.00
2022-08-26T06:43:47.815Z,100.00
2022-08-26T06:46:18.879Z,100.00
2022-08-26T06:48:45.873Z,100.00
2022-08-26T06:51:22.442Z,100.00
2022-08-26T06:53:52.377Z,100.00
2022-08-26T06:56:22.399Z,100.00
2022-08-26T06:58:49.417Z,100.00
2022-08-26T07:01:28.632Z,100.00
2022-08-26T07:03:57.653Z,100.00
2022-08-26T07:06:25.241Z,100.00
2022-08-26T07:08:53.885Z,100.00
2022-08-26T07:11:20.852Z,100.00
2022-08-26T07:13:48.126Z,100.00
2022-08-26T07:16:17.762Z,100.00
2022-08-26T07:18:48.513Z,100.00
2022-08-26T07:21:18.416Z,100.00
2022-08-26T07:23:48.907Z,100.00
2022-08-26T07:26:22.342Z,100.00
2022-08-26T07:28:53.537Z,100.00
2022-08-26T07:31:22.708Z,100.00
2022-08-26T07:33:50.474Z,100.00
2022-08-26T07:36:19.251Z,100.00
2022-08-26T07:38:46.317Z,100.00
2022-08-26T07:41:16.078Z,100.00
2022-08-26T07:43:43.841Z,100.00
2022-08-26T07:46:15.891Z,100.00
2022-08-26T07:48:46.211Z,100.00
2022-08-26T07:51:17.725Z,100.00
2022-08-26T07:53:45.239Z,100.00
2022-08-26T07:56:16.504Z,100.00
2022-08-26T07:58:43.755Z,100.00
2022-08-26T08:01:11.647Z,100.00
2022-08-26T08:03:38.159Z,100.00
2022-08-26T08:06:04.725Z,100.00
2022-08-26T08:08:35.064Z,100.00
2022-08-26T08:11:02.228Z,100.00
2022-08-26T08:13:29.250Z,100.00
2022-08-26T08:15:55.823Z,100.00
2022-08-26T08:18:23.365Z,100.00
2022-08-26T08:20:59.146Z,100.00
2022-08-26T08:23:32.419Z,100.00
2022-08-26T08:26:10.221Z,100.00
2022-08-26T08:28:39.407Z,100.00
2022-08-26T08:31:08.025Z,100.00
2022-08-26T08:33:35.423Z,100.00
2022-08-26T08:36:02.030Z,100.00
2022-08-26T08:38:30.274Z,100.00
2022-08-26T08:40:58.933Z,100.00
2022-08-26T08:43:40.100Z,100.00
2022-08-26T08:46:15.650Z,100.00
2022-08-26T08:48:46.488Z,100.00
2022-08-26T08:51:30.083Z,100.00
2022-08-26T08:53:56.821Z,100.00
2022-08-26T08:56:38.114Z,100.00
2022-08-26T08:59:20.611Z,100.00
2022-08-26T09:01:57.922Z,100.00
2022-08-26T09:04:58.422Z,100.00
2022-08-26T09:07:36.871Z,100.00
2022-08-26T09:10:28.278Z,100.00
2022-08-26T09:12:55.152Z,100.00
2022-08-26T09:15:29.852Z,100.00
2022-08-26T09:18:19.307Z,100.00
2022-08-26T09:21:13.519Z,100.00
2022-08-26T09:23:42.976Z,100.00
2022-08-26T09:26:24.724Z,100.00
2022-08-26T09:29:01.393Z,100.00
2022-08-26T09:31:31.776Z,100.00
2022-08-26T09:34:07.467Z,100.00
2022-08-26T09:36:41.219Z,100.00
2022-08-26T09:39:24.776Z,100.00
2022-08-26T09:42:09.596Z,100.00
2022-08-26T09:44:59.435Z,100.00
2022-08-26T09:47:30.113Z,100.00
2022-08-26T09:49:59.805Z,100.00
2022-08-26T09:52:28.055Z,100.00
2022-08-26T09:55:21.929Z,92.08
2022-08-26T09:57:54.077Z,93.57
2022-08-26T10:00:42.177Z,97.59
2022-08-26T10:03:11.945Z,100.00
2022-08-26T10:05:56.168Z,100.00
2022-08-26T10:08:26.099Z,100.00
2022-08-26T10:10:55.415Z,98.87
2022-08-26T10:13:31.386Z,96.80
2022-08-26T10:16:17.832Z,81.68
2022-08-26T10:19:02.700Z,76.14
2022-08-26T10:21:39.089Z,79.25
2022-08-26T10:24:11.374Z,87.00
2022-08-26T10:27:06.308Z,79.72
2022-08-26T10:29:44.419Z,83.00
2022-08-26T10:32:31.063Z,86.95
2022-08-26T10:34:57.676Z,83.27
2022-08-26T10:37:32.991Z,94.78
2022-08-26T10:40:11.089Z,100.00
2022-08-26T10:42:55.373Z,88.79
2022-08-26T10:45:26.433Z,80.93
2022-08-26T10:48:02.931Z,89.67
2022-08-26T10:50:41.927Z,90.32
2022-08-26T10:53:17.697Z,85.66
2022-08-26T10:55:52.526Z,91.10
2022-08-26T10:58:26.739Z,93.97
2022-08-26T11:01:23.741Z,91.63
2022-08-26T11:04:00.339Z,93.31
2022-08-26T11:06:31.410Z,90.21
2022-08-26T11:09:03.647Z,94.76
2022-08-26T11:11:39.562Z,90.10
2022-08-26T11:14:08.997Z,82.38
2022-08-26T11:16:48.117Z,85.58
2022-08-26T11:19:59.384Z,82.48
2022-08-26T11:22:47.484Z,76.52
2022-08-26T11:25:24.383Z,81.38
2022-08-26T11:27:58.637Z,85.36
2022-08-26T11:30:25.721Z,91.56
2022-08-26T11:32:58.909Z,91.07
2022-08-26T11:35:26.031Z,87.51
2022-08-26T11:38:00.467Z,93.72
2022-08-26T11:40:35.267Z,95.35
2022-08-26T11:43:08.949Z,99.45
2022-08-26T11:45:40.714Z,94.09
2022-08-26T11:48:23.872Z,93.83
2022-08-26T11:50:58.872Z,92.17
2022-08-26T11:53:27.244Z,100.00
2022-08-26T11:55:59.485Z,100.00
2022-08-26T11:58:28.030Z,100.00
2022-08-26T12:01:03.502Z,100.00
2022-08-26T12:03:45.891Z,100.00
2022-08-26T12:06:37.643Z,100.00
2022-08-26T12:09:19.681Z,100.00
2022-08-26T12:11:47.661Z,100.00
2022-08-26T12:14:24.353Z,100.00
2022-08-26T12:16:54.525Z,100.00
2022-08-26T12:19:33.267Z,100.00
2022-08-26T12:22:07.892Z,100.00
2022-08-26T12:24:35.354Z,100.00
2022-08-26T12:27:20.971Z,100.00
2022-08-26T12:30:00.881Z,100.00
2022-08-26T12:32:31.274Z,100.00
2022-08-26T12:35:00.827Z,100.00
2022-08-26T12:37:29.694Z,100.00
2022-08-26T12:40:25.096Z,100.00
2022-08-26T12:42:51.773Z,100.00
2022-08-26T12:45:37.309Z,100.00
2022-08-26T12:48:24.564Z,100.00
2022-08-26T12:50:53.220Z,100.00
2022-08-26T12:53:31.290Z,100.00
2022-08-26T12:56:25.023Z,100.00
2022-08-26T12:59:17.600Z,100.00
2022-08-26T13:01:47.276Z,100.00
2022-08-26T13:04:33.687Z,100.00
2022-08-26T13:07:35.125Z,100.00
2022-08-26T13:10:02.322Z,100.00
2022-08-26T13:12:32.062Z,100.00
2022-08-26T13:15:01.039Z,100.00
2022-08-26T13:17:29.417Z,100.00
2022-08-26T13:20:01.280Z,100.00
2022-08-26T13:22:30.014Z,100.00
2022-08-26T13:24:56.812Z,100.00
2022-08-26T13:27:26.165Z,100.00
2022-08-26T13:29:53.940Z,100.00
2022-08-26T13:32:23.803Z,100.00
2022-08-26T13:34:56.709Z,100.00
2022-08-26T13:37:34.617Z,100.00
2022-08-26T13:40:03.003Z,100.00
2022-08-26T13:42:29.687Z,100.00
2022-08-26T13:44:58.172Z,100.00
2022-08-26T13:47:25.888Z,100.00
2022-08-26T13:49:53.539Z,100.00
2022-08-26T13:52:30.826Z,100.00
2022-08-26T13:54:58.741Z,100.00
2022-08-26T13:57:27.873Z,100.00
2022-08-26T13:59:56.554Z,100.00
2022-08-26T14:02:23.035Z,100.00
2022-08-26T14:04:49.437Z,100.00
2022-08-26T14:07:15.839Z,100.00
2022-08-26T14:09:45.007Z,100.00
2022-08-26T14:12:11.509Z,100.00
2022-08-26T14:14:38.036Z,100.00
2022-08-26T14:17:04.645Z,100.00
2022-08-26T14:19:31.528Z,100.00
2022-08-26T14:22:00.669Z,100.00
2022-08-26T14:24:27.807Z,100.00
2022-08-26T14:26:54.452Z,100.00
2022-08-26T14:29:20.827Z,100.00
2022-08-26T14:31:48.364Z,100.00
2022-08-26T14:34:15.198Z,100.00
2022-08-26T14:36:41.689Z,100.00
2022-08-26T14:39:10.655Z,100.00
2022-08-26T14:41:44.866Z,100.00
2022-08-26T14:44:13.897Z,100.00
2022-08-26T14:46:47.277Z,100.00
2022-08-26T14:49:14.168Z,100.00
2022-08-26T14:51:41.009Z,100.00
2022-08-26T14:54:12.272Z,100.00
2022-08-26T14:56:53.807Z,100.00
2022-08-26T14:59:26.143Z,100.00
2022-08-26T15:01:54.346Z,100.00
2022-08-26T15:04:26.779Z,100.00
2022-08-26T15:06:56.571Z,100.00
2022-08-26T15:09:24.558Z,100.00
2022-08-26T15:11:52.990Z,100.00
2022-08-26T15:14:23.979Z,100.00
2022-08-26T15:16:54.799Z,100.00
2022-08-26T15:19:23.450Z,100.00
2022-08-26T15:21:50.888Z,100.00
2022-08-26T15:24:22.793Z,100.00
2022-08-26T15:26:50.077Z,100.00
2022-08-26T15:29:18.747Z,100.00
2022-08-26T15:31:45.750Z,100.00
2022-08-26T15:34:17.035Z,100.00
2022-08-26T15:36:45.492Z,100.00
2022-08-26T15:39:12.515Z,100.00
2022-08-26T15:41:44.017Z,100.00
2022-08-26T15:44:12.346Z,100.00
2022-08-26T15:46:39.225Z,100.00
2022-08-26T15:49:06.415Z,100.00
2022-08-26T15:51:45.704Z,100.00
2022-08-26T15:54:14.155Z,100.00
2022-08-26T15:56:40.625Z,100.00
2022-08-26T15:59:08.073Z,100.00
2022-08-26T16:01:37.454Z,100.00
2022-08-26T16:04:04.998Z,100.00
2022-08-26T16:06:34.239Z,100.00
2022-08-26T16:09:00.669Z,100.00
2022-08-26T16:11:28.327Z,100.00
2022-08-26T16:13:55.240Z,100.00
2022-08-26T16:16:22.343Z,100.00
2022-08-26T16:18:50.508Z,100.00
2022-08-26T16:21:19.789Z,100.00
2022-08-26T16:23:47.028Z,100.00
2022-08-26T16:26:19.399Z,100.00
2022-08-26T16:28:47.334Z,100.00
2022-08-26T16:31:14.681Z,100.00
2022-08-26T16:33:41.509Z,100.00
2022-08-26T16:36:09.872Z,100.00
2022-08-26T16:38:38.873Z,100.00
2022-08-26T16:41:07.643Z,100.00
2022-08-26T16:43:35.123Z,100.00
2022-08-26T16:46:02.421Z,100.00
2022-08-26T16:48:29.070Z,100.00
2022-08-26T16:50:56.120Z,100.00
2022-08-26T16:53:23.988Z,100.00
2022-08-26T16:55:51.667Z,100.00
2022-08-26T16:58:22.021Z,100.00
2022-08-26T17:00:48.900Z,100.00
2022-08-26T17:03:15.950Z,100.00
2022-08-26T17:05:42.506Z,100.00
2022-08-26T17:08:09.173Z,100.00
2022-08-26T17:10:35.774Z,100.00
2022-08-26T17:13:02.866Z,100.00
2022-08-26T17:15:35.857Z,100.00
2022-08-26T17:18:02.313Z,100.00
2022-08-26T17:20:29.921Z,100.00
2022-08-26T17:22:56.665Z,100.00
2022-08-26T17:25:26.761Z,100.00
2022-08-26T17:27:53.588Z,100.00
2022-08-26T17:30:21.113Z,100.00
2022-08-26T17:32:48.210Z,100.00
2022-08-26T17:35:16.732Z,100.00
2022-08-26T17:37:44.969Z,100.00
2022-08-26T17:40:15.609Z,100.00
2022-08-26T17:42:42.456Z,100.00
2022-08-26T17:45:10.171Z,100.00
2022-08-26T17:47:38.564Z,100.00
2022-08-26T17:50:09.131Z,100.00
2022-08-26T17:52:36.761Z,100.00
2022-08-26T17:55:04.723Z,100.00
2022-08-26T17:57:40.635Z,100.00
2022-08-26T18:00:14.493Z,100.00
2022-08-26T18:02:42.675Z,100.00
2022-08-26T18:05:12.076Z,100.00
2022-08-26T18:07:44.081Z,100.00
2022-08-26T18:10:16.610Z,100.00
2022-08-26T18:12:43.600Z,100.00
2022-08-26T18:15:12.380Z,100.00
2022-08-26T18:17:39.300Z,100.00
2022-08-26T18:20:10.078Z,100.00
2022-08-26T18:22:36.518Z,100.00
2022-08-26T18:25:05.046Z,100.00
2022-08-26T18:27:32.318Z,100.00
2022-08-26T18:29:59.172Z,100.00
2022-08-26T18:32:25.676Z,100.00
2022-08-26T18:34:52.266Z,100.00
2022-08-26T18:37:21.239Z,100.00
2022-08-26T18:39:50.887Z,100.00
2022-08-26T18:42:21.681Z,100.00
2022-08-26T18:44:50.886Z,100.00
2022-08-26T18:47:18.287Z,100.00
2022-08-26T18:49:47.799Z,100.00
2022-08-26T18:52:15.044Z,100.00
2022-08-26T18:54:41.632Z,100.00
2022-08-26T18:57:08.055Z,100.00
2022-08-26T18:59:34.752Z,100.00
2022-08-26T19:02:01.549Z,100.00
2022-08-26T19:04:28.166Z,100.00
2022-08-26T19:06:57.652Z,100.00
2022-08-26T19:09:26.268Z,100.00
2022-08-26T19:11:52.859Z,100.00
2022-08-26T19:14:19.350Z,100.00
2022-08-26T19:16:48.214Z,100.00
2022-08-26T19:19:16.506Z,100.00
2022-08-26T19:21:43.057Z,100.00
2022-08-26T19:24:15.666Z,100.00
2022-08-26T19:26:57.459Z,100.00
2022-08-26T19:29:34.487Z,100.00
2022-08-26T19:32:02.009Z,100.00
2022-08-26T19:34:28.638Z,100.00
2022-08-26T19:36:57.008Z,100.00
2022-08-26T19:39:24.120Z,100.00
2022-08-26T19:41:51.724Z,100.00
2022-08-26T19:44:39.417Z,100.00
2022-08-26T19:47:09.784Z,100.00
2022-08-26T19:49:36.858Z,100.00
2022-08-26T19:52:06.649Z,100.00
2022-08-26T19:54:34.561Z,100.00
2022-08-26T19:57:00.991Z,100.00
2022-08-26T19:59:27.465Z,100.00
2022-08-26T20:02:01.514Z,100.00
2022-08-26T20:04:30.718Z,100.00
2022-08-26T20:07:01.217Z,100.00
2022-08-26T20:09:32.613Z,100.00
2022-08-26T20:11:59.159Z,100.00
2022-08-26T20:14:29.842Z,100.00
2022-08-26T20:16:56.909Z,100.00
2022-08-26T20:19:45.222Z,100.00
2022-08-26T20:22:12.885Z,100.00
2022-08-26T20:24:40.172Z,100.00
2022-08-26T20:27:07.888Z,100.00
2022-08-26T20:29:35.590Z,100.00
2022-08-26T20:32:02.721Z,100.00
2022-08-26T20:34:31.006Z,100.00
2022-08-26T20:36:58.245Z,100.00
2022-08-26T20:39:28.778Z,100.00
2022-08-26T20:41:57.375Z,100.00
2022-08-26T20:44:25.076Z,100.00
2022-08-26T20:46:51.523Z,100.00
2022-08-26T20:49:18.976Z,100.00
2022-08-26T20:51:51.348Z,100.00
2022-08-26T20:54:19.859Z,100.00
2022-08-26T20:56:46.979Z,100.00
2022-08-26T20:59:14.487Z,100.00
2022-08-26T21:01:42.369Z,100.00
2022-08-26T21:04:18.182Z,100.00
2022-08-26T21:06:52.461Z,100.00
2022-08-26T21:09:21.585Z,100.00
2022-08-26T21:11:48.175Z,100.00
2022-08-26T21:14:17.283Z,100.00
2022-08-26T21:16:45.173Z,100.00
2022-08-26T21:19:15.801Z,100.00
2022-08-26T21:21:42.714Z,100.00
2022-08-26T21:24:09.577Z,100.00
2022-08-26T21:26:36.649Z,100.00
2022-08-26T21:29:04.401Z,100.00
2022-08-26T21:31:32.065Z,100.00
2022-08-26T21:33:59.038Z,100.00
2022-08-26T21:36:26.476Z,100.00
2022-08-26T21:38:56.045Z,100.00
2022-08-26T21:41:22.605Z,100.00
2022-08-26T21:43:52.007Z,100.00
2022-08-26T21:46:22.676Z,100.00
2022-08-26T21:48:53.952Z,100.00
2022-08-26T21:51:22.915Z,100.00
2022-08-26T21:53:50.458Z,100.00
2022-08-26T21:56:18.810Z,100.00
2022-08-26T21:58:46.631Z,100.00
2022-08-26T22:01:16.959Z,100.00
2022-08-26T22:03:44.739Z,100.00
2022-08-26T22:06:17.941Z,100.00
2022-08-26T22:08:44.510Z,100.00
2022-08-26T22:11:11.651Z,100.00
2022-08-26T22:13:40.119Z,100.00
2022-08-26T22:16:07.575Z,100.00
2022-08-26T22:18:34.821Z,100.00
2022-08-26T22:21:06.515Z,100.00
2022-08-26T22:23:34.432Z,100.00
2022-08-26T22:26:01.055Z,100.00
2022-08-26T22:28:28.161Z,100.00
2022-08-26T22:30:55.674Z,100.00
2022-08-26T22:33:22.906Z,100.00
2022-08-26T22:35:51.148Z,100.00
2022-08-26T22:38:17.739Z,100.00
2022-08-26T22:40:56.129Z,100.00
2022-08-26T22:43:24.131Z,100.00
2022-08-26T22:45:51.270Z,100.00
2022-08-26T22:48:21.816Z,100.00
2022-08-26T22:50:49.524Z,100.00
2022-08-26T22:53:17.399Z,100.00
2022-08-26T22:55:45.778Z,100.00
2022-08-26T22:58:14.600Z,100.00
2022-08-26T23:00:42.608Z,100.00
2022-08-26T23:03:11.394Z,100.00
2022-08-26T23:05:39.398Z,100.00
2022-08-26T23:08:06.512Z,100.00
2022-08-26T23:10:33.289Z,100.00
2022-08-26T23:13:00.013Z,100.00
2022-08-26T23:15:26.579Z,100.00
2022-08-26T23:17:58.556Z,100.00
2022-08-26T23:20:27.390Z,100.00
2022-08-26T23:22:54.729Z,100.00
2022-08-26T23:25:24.650Z,100.00
2022-08-26T23:27:52.531Z,100.00
2022-08-26T23:30:26.843Z,100.00
2022-08-26T23:32:53.760Z,100.00
2022-08-26T23:35:24.314Z,100.00
2022-08-26T23:37:52.954Z,100.00
2022-08-26T23:40:25.465Z,100.00
2022-08-26T23:42:53.880Z,100.00
2022-08-26T23:45:21.018Z,100.00
2022-08-26T23:47:51.012Z,100.00
2022-08-26T23:50:21.177Z,100.00
2022-08-26T23:53:06.084Z,100.00
2022-08-26T23:55:37.148Z,100.00
2022-08-26T23:58:05.220Z,100.00
